sensor_id;sensor_type;location;lat;lon;timestamp;pressure;altitude;pressure_sealevel;temperature;humidity
54546;BME280;40444;45.184;9.850;2023-02-04T00:00:52;101284.91;;;6.07;100.00
54546;BME280;40444;45.184;9.850;2023-02-04T00:03:21;101281.97;;;6.12;100.00
54546;BME280;40444;45.184;9.850;2023-02-04T00:05:50;101278.13;;;6.31;100.00
54546;BME280;40444;45.184;9.850;2023-02-04T00:08:18;101278.13;;;6.46;100.00
54546;BME280;40444;45.184;9.850;2023-02-04T00:10:47;101271.94;;;6.31;100.00
54546;BME280;40444;45.184;9.850;2023-02-04T00:13:15;101279.06;;;6.16;100.00
54546;BME280;40444;45.184;9.850;2023-02-04T00:15:44;101280.00;;;6.15;100.00
54546;BME280;40444;45.184;9.850;2023-02-04T00:18:12;101277.44;;;6.14;100.00
54546;BME280;40444;45.184;9.850;2023-02-04T00:20:41;101259.38;;;6.19;100.00
54546;BME280;40444;45.184;9.850;2023-02-04T00:23:10;101263.84;;;6.04;100.00
54546;BME280;40444;45.184;9.850;2023-02-04T00:25:38;101267.63;;;6.14;100.00
54546;BME280;40444;45.184;9.850;2023-02-04T00:28:07;101260.91;;;6.08;100.00
54546;BME280;40444;45.184;9.850;2023-02-04T00:30:35;101264.69;;;6.19;100.00
54546;BME280;40444;45.184;9.850;2023-02-04T00:33:03;101265.66;;;6.18;100.00
54546;BME280;40444;45.184;9.850;2023-02-04T00:35:32;101258.34;;;6.21;100.00
54546;BME280;40444;45.184;9.850;2023-02-04T00:38:00;101257.97;;;6.27;100.00
54546;BME280;40444;45.184;9.850;2023-02-04T00:40:28;101253.59;;;6.26;100.00
54546;BME280;40444;45.184;9.850;2023-02-04T00:42:57;101254.44;;;6.41;100.00
54546;BME280;40444;45.184;9.850;2023-02-04T00:45:26;101249.41;;;6.51;100.00
54546;BME280;40444;45.184;9.850;2023-02-04T00:47:54;101242.94;;;6.55;100.00
54546;BME280;40444;45.184;9.850;2023-02-04T00:50:24;101235.91;;;6.54;100.00
54546;BME280;40444;45.184;9.850;2023-02-04T00:52:53;101236.84;;;6.67;100.00
54546;BME280;40444;45.184;9.850;2023-02-04T00:55:21;101230.19;;;6.60;100.00
54546;BME280;40444;45.184;9.850;2023-02-04T00:57:50;101229.56;;;6.56;100.00
54546;BME280;40444;45.184;9.850;2023-02-04T01:00:19;101226.50;;;6.63;100.00
54546;BME280;40444;45.184;9.850;2023-02-04T01:02:48;101228.19;;;6.64;100.00
54546;BME280;40444;45.184;9.850;2023-02-04T01:05:21;101231.63;;;6.66;100.00
54546;BME280;40444;45.184;9.850;2023-02-04T01:07:50;101232.50;;;6.66;100.00
54546;BME280;40444;45.184;9.850;2023-02-04T01:10:19;101223.44;;;6.69;100.00
54546;BME280;40444;45.184;9.850;2023-02-04T01:12:48;101229.59;;;6.69;100.00
54546;BME280;40444;45.184;9.850;2023-02-04T01:15:16;101224.47;;;6.80;100.00
54546;BME280;40444;45.184;9.850;2023-02-04T01:17:45;101215.06;;;6.75;100.00
54546;BME280;40444;45.184;9.850;2023-02-04T01:20:14;101216.78;;;6.76;100.00
54546;BME280;40444;45.184;9.850;2023-02-04T01:22:42;101206.63;;;6.95;100.00
54546;BME280;40444;45.184;9.850;2023-02-04T01:25:11;101201.41;;;6.94;100.00
54546;BME280;40444;45.184;9.850;2023-02-04T01:27:42;101207.78;;;7.05;100.00
54546;BME280;40444;45.184;9.850;2023-02-04T01:30:13;101210.47;;;7.18;100.00
54546;BME280;40444;45.184;9.850;2023-02-04T01:32:42;101201.06;;;7.40;100.00
54546;BME280;40444;45.184;9.850;2023-02-04T01:35:11;101200.31;;;7.38;100.00
54546;BME280;40444;45.184;9.850;2023-02-04T01:37:39;101197.88;;;7.47;100.00
54546;BME280;40444;45.184;9.850;2023-02-04T01:40:09;101183.69;;;7.47;100.00
54546;BME280;40444;45.184;9.850;2023-02-04T01:42:38;101181.16;;;7.58;100.00
54546;BME280;40444;45.184;9.850;2023-02-04T01:45:08;101179.31;;;7.58;100.00
54546;BME280;40444;45.184;9.850;2023-02-04T01:47:36;101177.78;;;7.69;100.00
54546;BME280;40444;45.184;9.850;2023-02-04T01:50:06;101177.22;;;7.64;100.00
54546;BME280;40444;45.184;9.850;2023-02-04T01:52:36;101184.50;;;7.74;100.00
54546;BME280;40444;45.184;9.850;2023-02-04T01:55:23;101159.63;;;7.74;100.00
54546;BME280;40444;45.184;9.850;2023-02-04T01:57:52;101176.69;;;7.71;100.00
54546;BME280;40444;45.184;9.850;2023-02-04T02:00:31;101176.06;;;7.80;100.00
54546;BME280;40444;45.184;9.850;2023-02-04T02:03:00;101183.84;;;7.83;100.00
54546;BME280;40444;45.184;9.850;2023-02-04T02:05:51;101182.91;;;7.97;100.00
54546;BME280;40444;45.184;9.850;2023-02-04T02:08:20;101182.56;;;8.02;100.00
54546;BME280;40444;45.184;9.850;2023-02-04T02:10:49;101187.38;;;7.97;100.00
54546;BME280;40444;45.184;9.850;2023-02-04T02:13:18;101185.44;;;7.99;100.00
54546;BME280;40444;45.184;9.850;2023-02-04T02:15:47;101178.41;;;7.98;100.00
54546;BME280;40444;45.184;9.850;2023-02-04T02:18:15;101174.25;;;7.94;100.00
54546;BME280;40444;45.184;9.850;2023-02-04T02:20:44;101175.22;;;8.05;100.00
54546;BME280;40444;45.184;9.850;2023-02-04T02:26:16;101175.88;;;8.09;100.00
54546;BME280;40444;45.184;9.850;2023-02-04T02:28:46;101193.38;;;8.00;100.00
54546;BME280;40444;45.184;9.850;2023-02-04T02:31:18;101181.41;;;7.93;100.00
54546;BME280;40444;45.184;9.850;2023-02-04T02:33:47;101184.84;;;7.95;100.00
54546;BME280;40444;45.184;9.850;2023-02-04T02:36:16;101183.09;;;7.94;100.00
54546;BME280;40444;45.184;9.850;2023-02-04T02:38:44;101184.94;;;8.06;100.00
54546;BME280;40444;45.184;9.850;2023-02-04T02:41:12;101176.50;;;8.00;100.00
54546;BME280;40444;45.184;9.850;2023-02-04T02:43:40;101173.28;;;8.07;100.00
54546;BME280;40444;45.184;9.850;2023-02-04T02:46:08;101172.22;;;8.10;100.00
54546;BME280;40444;45.184;9.850;2023-02-04T02:48:36;101153.34;;;8.00;100.00
54546;BME280;40444;45.184;9.850;2023-02-04T02:51:05;101161.22;;;8.02;100.00
54546;BME280;40444;45.184;9.850;2023-02-04T02:53:33;101150.75;;;7.99;100.00
54546;BME280;40444;45.184;9.850;2023-02-04T02:56:01;101158.56;;;7.89;100.00
54546;BME280;40444;45.184;9.850;2023-02-04T02:58:34;101152.69;;;7.97;100.00
54546;BME280;40444;45.184;9.850;2023-02-04T03:01:05;101153.84;;;7.80;100.00
54546;BME280;40444;45.184;9.850;2023-02-04T03:03:39;101142.78;;;7.73;100.00
54546;BME280;40444;45.184;9.850;2023-02-04T03:06:22;101145.66;;;7.83;100.00
54546;BME280;40444;45.184;9.850;2023-02-04T03:08:53;101130.16;;;7.75;100.00
54546;BME280;40444;45.184;9.850;2023-02-04T03:11:24;101132.75;;;7.77;100.00
54546;BME280;40444;45.184;9.850;2023-02-04T03:13:57;101128.59;;;7.73;100.00
54546;BME280;40444;45.184;9.850;2023-02-04T03:16:31;101127.28;;;7.78;100.00
54546;BME280;40444;45.184;9.850;2023-02-04T03:19:01;101131.00;;;7.63;100.00
54546;BME280;40444;45.184;9.850;2023-02-04T03:21:31;101130.06;;;7.64;100.00
54546;BME280;40444;45.184;9.850;2023-02-04T03:24:00;101129.75;;;7.69;100.00
54546;BME280;40444;45.184;9.850;2023-02-04T03:26:29;101138.78;;;7.53;100.00
54546;BME280;40444;45.184;9.850;2023-02-04T03:28:58;101150.22;;;7.81;100.00
54546;BME280;40444;45.184;9.850;2023-02-04T03:31:27;101147.47;;;7.82;100.00
54546;BME280;40444;45.184;9.850;2023-02-04T03:33:55;101161.44;;;7.73;100.00
54546;BME280;40444;45.184;9.850;2023-02-04T03:36:24;101174.34;;;7.67;100.00
54546;BME280;40444;45.184;9.850;2023-02-04T03:38:52;101187.38;;;7.84;100.00
54546;BME280;40444;45.184;9.850;2023-02-04T03:41:22;101175.19;;;7.80;100.00
54546;BME280;40444;45.184;9.850;2023-02-04T03:43:50;101163.34;;;7.84;100.00
54546;BME280;40444;45.184;9.850;2023-02-04T03:46:18;101165.72;;;7.89;100.00
54546;BME280;40444;45.184;9.850;2023-02-04T03:48:47;101178.09;;;7.90;100.00
54546;BME280;40444;45.184;9.850;2023-02-04T03:51:15;101177.47;;;7.86;100.00
54546;BME280;40444;45.184;9.850;2023-02-04T03:53:44;101175.81;;;7.58;100.00
54546;BME280;40444;45.184;9.850;2023-02-04T03:56:12;101170.81;;;7.66;100.00
54546;BME280;40444;45.184;9.850;2023-02-04T03:58:41;101176.97;;;7.54;100.00
54546;BME280;40444;45.184;9.850;2023-02-04T04:01:09;101188.38;;;7.43;100.00
54546;BME280;40444;45.184;9.850;2023-02-04T04:03:38;101169.69;;;7.30;100.00
54546;BME280;40444;45.184;9.850;2023-02-04T04:06:06;101168.81;;;7.30;100.00
54546;BME280;40444;45.184;9.850;2023-02-04T04:08:37;101183.78;;;7.32;100.00
54546;BME280;40444;45.184;9.850;2023-02-04T04:11:05;101175.06;;;7.16;100.00
54546;BME280;40444;45.184;9.850;2023-02-04T04:13:34;101174.56;;;7.24;100.00
54546;BME280;40444;45.184;9.850;2023-02-04T04:16:02;101169.56;;;7.32;100.00
54546;BME280;40444;45.184;9.850;2023-02-04T04:18:32;101173.44;;;7.41;100.00
54546;BME280;40444;45.184;9.850;2023-02-04T04:21:01;101164.81;;;7.37;100.00
54546;BME280;40444;45.184;9.850;2023-02-04T04:23:29;101181.84;;;7.34;100.00
54546;BME280;40444;45.184;9.850;2023-02-04T04:25:57;101169.38;;;7.35;100.00
54546;BME280;40444;45.184;9.850;2023-02-04T04:28:25;101179.19;;;7.34;100.00
54546;BME280;40444;45.184;9.850;2023-02-04T04:30:54;101187.19;;;7.34;100.00
54546;BME280;40444;45.184;9.850;2023-02-04T04:33:22;101198.03;;;7.31;100.00
54546;BME280;40444;45.184;9.850;2023-02-04T04:35:51;101197.72;;;7.23;100.00
54546;BME280;40444;45.184;9.850;2023-02-04T04:38:19;101193.63;;;7.18;100.00
54546;BME280;40444;45.184;9.850;2023-02-04T04:40:48;101178.28;;;7.21;100.00
54546;BME280;40444;45.184;9.850;2023-02-04T04:43:17;101169.03;;;7.27;100.00
54546;BME280;40444;45.184;9.850;2023-02-04T04:45:45;101175.44;;;7.24;100.00
54546;BME280;40444;45.184;9.850;2023-02-04T04:48:13;101175.81;;;7.18;100.00
54546;BME280;40444;45.184;9.850;2023-02-04T04:50:41;101178.03;;;7.12;100.00
54546;BME280;40444;45.184;9.850;2023-02-04T04:53:10;101169.38;;;7.08;100.00
54546;BME280;40444;45.184;9.850;2023-02-04T04:55:38;101170.16;;;7.10;100.00
54546;BME280;40444;45.184;9.850;2023-02-04T04:58:08;101165.69;;;7.11;100.00
54546;BME280;40444;45.184;9.850;2023-02-04T05:00:37;101160.44;;;7.09;100.00
54546;BME280;40444;45.184;9.850;2023-02-04T05:03:05;101164.06;;;7.08;100.00
54546;BME280;40444;45.184;9.850;2023-02-04T05:05:33;101166.06;;;7.04;100.00
54546;BME280;40444;45.184;9.850;2023-02-04T05:08:07;101176.94;;;7.01;100.00
54546;BME280;40444;45.184;9.850;2023-02-04T05:10:40;101184.16;;;6.99;100.00
54546;BME280;40444;45.184;9.850;2023-02-04T05:13:09;101189.06;;;6.93;100.00
54546;BME280;40444;45.184;9.850;2023-02-04T05:15:37;101183.38;;;6.84;100.00
54546;BME280;40444;45.184;9.850;2023-02-04T05:18:06;101178.34;;;6.80;100.00
54546;BME280;40444;45.184;9.850;2023-02-04T05:20:34;101180.34;;;6.76;100.00
54546;BME280;40444;45.184;9.850;2023-02-04T05:23:02;101176.16;;;6.72;100.00
54546;BME280;40444;45.184;9.850;2023-02-04T05:25:32;101175.59;;;6.67;100.00
54546;BME280;40444;45.184;9.850;2023-02-04T05:28:01;101175.91;;;6.63;100.00
54546;BME280;40444;45.184;9.850;2023-02-04T05:30:29;101163.19;;;6.53;100.00
54546;BME280;40444;45.184;9.850;2023-02-04T05:32:59;101162.06;;;6.43;100.00
54546;BME280;40444;45.184;9.850;2023-02-04T05:35:27;101169.81;;;6.46;100.00
54546;BME280;40444;45.184;9.850;2023-02-04T05:37:55;101173.56;;;6.44;100.00
54546;BME280;40444;45.184;9.850;2023-02-04T05:40:24;101167.09;;;6.48;100.00
54546;BME280;40444;45.184;9.850;2023-02-04T05:42:53;101169.53;;;6.51;100.00
54546;BME280;40444;45.184;9.850;2023-02-04T05:45:21;101181.25;;;6.48;100.00
54546;BME280;40444;45.184;9.850;2023-02-04T05:47:50;101193.91;;;6.16;100.00
54546;BME280;40444;45.184;9.850;2023-02-04T05:50:19;101192.66;;;5.63;100.00
54546;BME280;40444;45.184;9.850;2023-02-04T05:52:47;101202.38;;;5.18;100.00
54546;BME280;40444;45.184;9.850;2023-02-04T05:55:16;101188.16;;;5.03;100.00
54546;BME280;40444;45.184;9.850;2023-02-04T05:57:44;101186.88;;;5.11;100.00
54546;BME280;40444;45.184;9.850;2023-02-04T06:00:13;101195.59;;;5.13;100.00
54546;BME280;40444;45.184;9.850;2023-02-04T06:02:41;101194.69;;;5.14;100.00
54546;BME280;40444;45.184;9.850;2023-02-04T06:05:10;101193.72;;;5.15;100.00
54546;BME280;40444;45.184;9.850;2023-02-04T06:07:38;101198.09;;;5.16;100.00
